Time;durP1;ratioP1;P1;durP2;ratioP2;P2;SDS_P1;SDS_P2;PMS_P1;PMS_P2;Temp;Humidity;BMP_temperature;BMP_pressure;BME280_temperature;BME280_humidity;BME280_pressure;Samples;Min_cycle;Max_cycle;Signal;HPM_P1;HPM_P2
2021/12/12 00:01:38;;;;;;;55.60;30.43;;;77.70;2227.20;;;;;;4755032;30;20029;-60
2021/12/12 00:04:13;;;;;;;48.50;29.50;;;77.70;2227.20;;;;;;4754944;30;20036;-60
2021/12/12 00:06:50;;;;;;;42.33;26.90;;;77.60;2227.20;;;;;;4754936;30;20530;-60
2021/12/12 00:09:23;;;;;;;43.73;26.57;;;77.60;2227.20;;;;;;4755150;30;20109;-60
2021/12/12 00:11:51;;;;;;;47.63;28.55;;;77.60;2227.20;;;;;;4754917;30;20501;-60
2021/12/12 00:14:22;;;;;;;43.80;27.53;;;77.50;2227.20;;;;;;4754802;30;20044;-60
2021/12/12 00:16:49;;;;;;;43.23;26.70;;;77.50;2227.20;;;;;;4754834;30;20029;-60
2021/12/12 00:19:16;;;;;;;41.90;26.83;;;77.50;2227.20;;;;;;4754685;30;20111;-60
2021/12/12 00:21:47;;;;;;;41.10;26.87;;;77.50;2227.20;;;;;;4759377;30;20506;-60
2021/12/12 00:24:15;;;;;;;39.30;25.37;;;77.40;2227.20;;;;;;4754688;30;20040;-61
2021/12/12 00:26:42;;;;;;;40.70;26.37;;;77.50;2227.20;;;;;;4754652;30;20501;-60
2021/12/12 00:29:11;;;;;;;40.33;25.13;;;77.50;2227.20;;;;;;4754439;30;20143;-60
2021/12/12 00:31:37;;;;;;;37.13;23.60;;;77.40;2227.20;;;;;;4754525;30;20463;-60
2021/12/12 00:34:03;;;;;;;41.67;24.80;;;77.40;2227.20;;;;;;4754957;30;20042;-60
2021/12/12 00:36:30;;;;;;;38.63;24.60;;;77.40;2227.20;;;;;;4754704;30;20036;-60
2021/12/12 00:39:12;;;;;;;40.63;25.10;;;77.40;2227.20;;;;;;4754328;30;20051;-60
2021/12/12 00:41:56;;;;;;;36.90;23.80;;;77.40;2227.20;;;;;;4754329;30;20115;-61
2021/12/12 00:44:23;;;;;;;37.78;24.55;;;77.40;2227.20;;;;;;4754418;30;20036;-60
2021/12/12 00:46:50;;;;;;;35.07;22.93;;;77.40;2227.20;;;;;;4754210;30;20508;-60
2021/12/12 00:49:18;;;;;;;36.03;23.77;;;77.40;2227.20;;;;;;4754162;30;20509;-60
2021/12/12 00:51:45;;;;;;;37.17;23.70;;;77.40;2227.20;;;;;;4754091;30;20047;-60
2021/12/12 00:54:13;;;;;;;35.47;23.50;;;77.40;2227.20;;;;;;4754179;30;20487;-60
2021/12/12 00:56:40;;;;;;;38.10;23.40;;;77.40;2227.20;;;;;;4754405;30;20107;-60
2021/12/12 00:59:07;;;;;;;38.10;23.77;;;77.40;2227.20;;;;;;4753985;30;20086;-60
2021/12/12 01:01:39;;;;;;;36.37;22.93;;;77.40;2227.20;;;;;;4754067;30;20044;-60
2021/12/12 01:04:16;;;;;;;39.13;22.10;;;77.30;2227.20;;;;;;4753309;30;20089;-60
2021/12/12 01:06:43;;;;;;;34.30;22.67;;;77.40;2227.20;;;;;;4754261;30;20059;-60
2021/12/12 01:09:14;;;;;;;35.10;21.90;;;77.30;2227.20;;;;;;4754010;30;20024;-60
2021/12/12 01:11:44;;;;;;;34.50;22.60;;;77.30;2227.20;;;;;;4754189;30;20036;-60
2021/12/12 01:14:13;;;;;;;32.77;21.47;;;77.20;2227.20;;;;;;4753706;30;20036;-60
2021/12/12 01:16:48;;;;;;;35.23;22.47;;;77.30;2227.20;;;;;;4754075;30;20390;-60
2021/12/12 01:19:23;;;;;;;35.50;23.20;;;77.30;2227.20;;;;;;4753679;30;20071;-60
2021/12/12 01:21:54;;;;;;;36.13;22.70;;;77.20;2227.20;;;;;;4753663;30;20035;-60
2021/12/12 01:24:25;;;;;;;35.93;22.37;;;77.20;2227.20;;;;;;4753768;30;20165;-60
2021/12/12 01:26:55;;;;;;;33.37;21.70;;;77.20;2227.20;;;;;;4753922;30;20067;-60
2021/12/12 01:29:21;;;;;;;31.93;21.30;;;77.10;2227.20;;;;;;4753535;30;20568;-60
2021/12/12 01:31:49;;;;;;;32.83;21.37;;;77.20;2227.20;;;;;;4753567;30;20040;-61
2021/12/12 01:34:28;;;;;;;32.50;21.07;;;77.10;2227.20;;;;;;4765275;30;20559;-60
2021/12/12 01:37:36;;;;;;;33.17;22.10;;;77.10;2227.20;;;;;;4771095;30;20042;-60
2021/12/12 01:40:16;;;;;;;33.53;21.20;;;77.10;2227.20;;;;;;4771176;30;20462;-60
2021/12/12 01:43:10;;;;;;;31.80;20.87;;;77.10;2227.20;;;;;;4771280;30;20115;-60
2021/12/12 01:45:45;;;;;;;31.92;20.25;;;77.10;2227.20;;;;;;4769125;30;20042;-60
2021/12/12 01:48:27;;;;;;;33.47;20.70;;;77.10;2227.20;;;;;;4765713;30;20040;-60
2021/12/12 01:51:01;;;;;;;31.83;19.97;;;77.10;2227.20;;;;;;4771048;30;20504;-61
2021/12/12 01:53:29;;;;;;;27.90;18.45;;;77.00;2227.20;;;;;;4770884;30;20493;-60
2021/12/12 01:56:06;;;;;;;29.63;20.43;;;77.10;2227.20;;;;;;4768346;30;20044;-60
2021/12/12 01:58:34;;;;;;;28.93;17.80;;;77.10;2227.20;;;;;;4770100;30;20058;-61
2021/12/12 02:01:30;;;;;;;35.03;21.70;;;77.00;2227.20;;;;;;4761719;30;20035;-61
2021/12/12 02:04:01;;;;;;;34.77;21.40;;;77.00;2227.20;;;;;;4759924;30;20401;-61
2021/12/12 02:06:28;;;;;;;41.50;24.60;;;77.00;2227.20;;;;;;4770707;30;20059;-61
2021/12/12 02:08:56;;;;;;;64.47;32.77;;;77.00;2227.20;;;;;;4770644;30;20082;-61
2021/12/12 02:11:28;;;;;;;49.10;27.20;;;77.00;2227.20;;;;;;4770826;30;20379;-57
2021/12/12 02:13:56;;;;;;;37.87;21.93;;;77.00;2227.20;;;;;;4770601;30;20092;-57
2021/12/12 02:16:27;;;;;;;36.10;20.87;;;77.00;2227.20;;;;;;4770369;30;20553;-57
2021/12/12 02:18:56;;;;;;;45.87;27.60;;;77.00;2227.20;;;;;;4770478;30;20047;-62
2021/12/12 02:21:37;;;;;;;37.90;22.63;;;77.00;2227.20;;;;;;4770398;30;20111;-62
2021/12/12 02:37:35;;;;;;;35.17;21.13;;;77.00;2227.20;;;;;;4770222;30;20074;-57
2021/12/12 02:40:05;;;;;;;37.80;20.73;;;77.00;2227.20;;;;;;4770218;30;20047;-57
2021/12/12 02:42:31;;;;;;;37.43;21.57;;;77.00;2227.20;;;;;;4770279;30;20398;-57
2021/12/12 02:45:00;;;;;;;34.67;22.00;;;77.00;2227.20;;;;;;4770525;30;20110;-57
2021/12/12 02:47:34;;;;;;;33.53;21.07;;;77.00;2227.20;;;;;;4770199;30;20048;-57
2021/12/12 02:50:18;;;;;;;35.40;22.03;;;77.00;2227.20;;;;;;4770228;30;20035;-57
2021/12/12 02:52:49;;;;;;;35.22;21.60;;;77.00;2227.20;;;;;;4770501;30;20139;-57
2021/12/12 02:55:23;;;;;;;35.17;21.77;;;77.00;2227.20;;;;;;4770357;30;20031;-57
2021/12/12 02:57:51;;;;;;;36.43;22.33;;;77.00;2227.20;;;;;;4770154;30;20432;-57
2021/12/12 03:00:21;;;;;;;37.70;21.70;;;77.00;2227.20;;;;;;4770153;30;20052;-57
2021/12/12 03:02:49;;;;;;;34.43;21.60;;;77.00;2227.20;;;;;;4770176;30;20028;-57
2021/12/12 03:05:18;;;;;;;35.00;20.67;;;77.00;2227.20;;;;;;4770323;30;20035;-57
2021/12/12 03:07:45;;;;;;;33.97;20.67;;;77.00;2227.20;;;;;;4770124;30;20043;-57
2021/12/12 03:10:16;;;;;;;34.17;21.10;;;76.90;2227.20;;;;;;4770095;30;20028;-57
2021/12/12 03:12:43;;;;;;;35.13;22.47;;;76.90;2227.20;;;;;;4770382;30;20039;-57
2021/12/12 03:15:17;;;;;;;31.60;19.73;;;76.90;2227.20;;;;;;4770051;30;20028;-57
2021/12/12 03:17:46;;;;;;;35.80;22.13;;;76.90;2227.20;;;;;;4770259;30;20451;-57
2021/12/12 03:20:26;;;;;;;33.13;21.60;;;76.90;2227.20;;;;;;4770266;30;20064;-57
2021/12/12 03:22:56;;;;;;;30.57;19.00;;;76.90;2227.20;;;;;;4770339;30;20385;-57
2021/12/12 03:25:22;;;;;;;34.33;20.87;;;76.80;2227.20;;;;;;4770105;30;20036;-57
2021/12/12 03:27:49;;;;;;;35.73;21.50;;;76.80;2227.20;;;;;;4771861;30;20032;-57
2021/12/12 03:30:16;;;;;;;31.77;21.43;;;76.80;2227.20;;;;;;4773339;30;20043;-57
2021/12/12 03:32:42;;;;;;;33.60;20.20;;;76.80;2227.20;;;;;;4773521;30;20039;-58
2021/12/12 03:35:08;;;;;;;31.90;20.20;;;76.80;2227.20;;;;;;4773218;30;20114;-57
2021/12/12 03:37:35;;;;;;;35.87;23.00;;;76.80;2227.20;;;;;;4773362;30;20031;-57
2021/12/12 03:40:20;;;;;;;33.23;21.47;;;76.80;2227.20;;;;;;4773173;30;20481;-57
2021/12/12 03:42:49;;;;;;;33.77;21.53;;;76.80;2227.20;;;;;;4773199;30;20382;-57
2021/12/12 03:45:15;;;;;;;35.77;21.40;;;52.10;2227.20;;;;;;4773321;30;20036;-60
2021/12/12 03:47:49;;;;;;;36.07;23.17;;;76.80;2227.20;;;;;;4773105;30;20031;-60
2021/12/12 03:50:23;;;;;;;37.08;22.67;;;52.10;2227.20;;;;;;4773293;30;20039;-60
2021/12/12 03:52:50;;;;;;;37.30;22.40;;;52.10;2227.20;;;;;;4772921;30;20028;-60
2021/12/12 03:55:17;;;;;;;39.10;23.17;;;52.10;2227.20;;;;;;4772750;30;20044;-60
2021/12/12 03:57:44;;;;;;;38.67;23.13;;;52.10;2227.20;;;;;;4772782;30;20086;-60
2021/12/12 04:00:16;;;;;;;40.27;22.73;;;52.10;2227.20;;;;;;4772767;30;20023;-60
2021/12/12 04:02:42;;;;;;;42.03;25.07;;;52.00;2227.20;;;;;;4772841;30;20190;-60
2021/12/12 04:05:08;;;;;;;41.70;25.07;;;52.00;2227.20;;;;;;4772781;30;20040;-60
2021/12/12 04:07:34;;;;;;;48.00;27.70;;;52.00;2227.20;;;;;;4772703;30;20035;-60
2021/12/12 04:10:01;;;;;;;53.63;31.93;;;52.00;2227.20;;;;;;4772619;30;20038;-60
2021/12/12 04:12:27;;;;;;;47.43;27.97;;;51.90;2227.20;;;;;;4772834;30;20032;-60
2021/12/12 04:14:55;;;;;;;49.67;27.97;;;51.90;2227.20;;;;;;4772548;30;20079;-60
2021/12/12 04:17:25;;;;;;;52.70;32.03;;;51.90;2227.20;;;;;;4772708;30;20402;-60
2021/12/12 04:19:54;;;;;;;52.33;30.97;;;51.90;2227.20;;;;;;4772817;30;20093;-60
2021/12/12 04:22:21;;;;;;;59.70;32.97;;;51.90;2227.20;;;;;;4772694;30;20398;-60
2021/12/12 04:24:51;;;;;;;51.17;31.07;;;51.90;2227.20;;;;;;4772388;30;20059;-60
2021/12/12 04:27:18;;;;;;;45.67;27.23;;;51.90;2227.20;;;;;;4772601;30;20040;-60
2021/12/12 04:29:48;;;;;;;50.07;31.03;;;51.90;2227.20;;;;;;4772248;30;20067;-60
2021/12/12 04:32:21;;;;;;;48.03;27.77;;;51.90;2227.20;;;;;;4772219;30;20486;-60
2021/12/12 04:34:52;;;;;;;47.00;26.63;;;51.90;2227.20;;;;;;4772310;30;20078;-60
2021/12/12 04:37:20;;;;;;;56.27;31.13;;;51.90;2227.20;;;;;;4771850;30;20036;-60
2021/12/12 04:39:53;;;;;;;42.47;26.67;;;51.90;2227.20;;;;;;4772184;30;20035;-60
2021/12/12 04:42:28;;;;;;;47.77;28.07;;;51.90;2227.20;;;;;;4772104;30;20039;-60
2021/12/12 04:45:07;;;;;;;48.60;28.87;;;51.90;2227.20;;;;;;4772069;30;20032;-60
2021/12/12 04:51:20;;;;;;;45.65;25.83;;;51.90;2227.20;;;;;;4772045;30;20050;-60
2021/12/12 04:54:12;;;;;;;45.23;26.40;;;51.90;2227.20;;;;;;4771067;30;20054;-60
2021/12/12 04:57:06;;;;;;;44.67;26.47;;;51.90;2227.20;;;;;;4769362;30;20055;-60
2021/12/12 04:59:38;;;;;;;43.95;25.92;;;51.90;2227.20;;;;;;4769539;30;20091;-60
2021/12/12 05:02:28;;;;;;;41.37;25.70;;;51.90;2227.20;;;;;;4755828;30;20042;-60
2021/12/12 05:05:16;;;;;;;44.20;26.73;;;51.90;2227.20;;;;;;4771728;30;20032;-60
2021/12/12 05:08:10;;;;;;;47.60;26.53;;;51.90;2227.20;;;;;;4771763;30;20036;-60
2021/12/12 05:10:41;;;;;;;46.47;26.43;;;51.90;2227.20;;;;;;4771486;30;20030;-60
2021/12/12 05:13:27;;;;;;;45.83;27.73;;;51.90;2227.20;;;;;;4771773;30;20273;-60
2021/12/12 05:16:05;;;;;;;45.70;26.00;;;51.90;2227.20;;;;;;4771616;30;20047;-60
2021/12/12 05:18:38;;;;;;;43.03;25.13;;;52.00;2227.20;;;;;;4771422;30;20107;-60
2021/12/12 05:21:16;;;;;;;48.90;27.23;;;51.90;2227.20;;;;;;4771589;30;20024;-60
2021/12/12 05:23:49;;;;;;;48.57;27.33;;;51.90;2227.20;;;;;;4771460;30;20410;-60
2021/12/12 05:26:27;;;;;;;50.78;29.23;;;51.90;2227.20;;;;;;4771403;30;20036;-60
2021/12/12 05:29:14;;;;;;;52.23;29.97;;;51.90;2227.20;;;;;;4771274;30;20079;-60
2021/12/12 05:31:45;;;;;;;46.97;27.40;;;51.90;2227.20;;;;;;4771357;30;20043;-59
2021/12/12 05:34:12;;;;;;;49.43;27.80;;;51.90;2227.20;;;;;;4771558;30;20028;-60
2021/12/12 05:36:38;;;;;;;51.10;29.07;;;51.90;2227.20;;;;;;4771136;30;20031;-60
2021/12/12 05:39:05;;;;;;;46.60;28.27;;;51.90;2227.20;;;;;;4771062;30;20050;-60
2021/12/12 05:41:32;;;;;;;53.30;28.60;;;51.90;2227.20;;;;;;4771094;30;20486;-60
2021/12/12 05:43:59;;;;;;;47.80;26.63;;;51.90;2227.20;;;;;;4771322;30;20039;-60
2021/12/12 05:46:26;;;;;;;54.87;29.70;;;51.80;2227.20;;;;;;4771105;30;20031;-60
2021/12/12 05:48:53;;;;;;;51.27;28.13;;;51.80;2227.20;;;;;;4770728;30;20031;-60
2021/12/12 05:51:21;;;;;;;51.30;28.00;;;51.90;2227.20;;;;;;4770687;30;20027;-60
2021/12/12 05:53:53;;;;;;;41.23;24.70;;;51.80;2227.20;;;;;;4770923;30;20573;-60
2021/12/12 05:56:29;;;;;;;40.70;25.00;;;51.70;2227.20;;;;;;4771148;30;20035;-60
2021/12/12 05:58:57;;;;;;;41.60;25.67;;;51.90;2227.20;;;;;;4771033;30;20089;-60
2021/12/12 06:01:23;;;;;;;43.50;25.83;;;51.80;2227.20;;;;;;4770750;30;20032;-60
2021/12/12 06:03:51;;;;;;;40.00;22.93;;;51.90;2227.20;;;;;;4770831;30;20111;-60
2021/12/12 06:06:26;;;;;;;41.10;23.80;;;51.80;2227.20;;;;;;4770729;30;20051;-60
2021/12/12 06:09:00;;;;;;;55.53;29.77;;;51.90;2227.20;;;;;;4770767;30;20032;-60
2021/12/12 06:11:27;;;;;;;;;;;51.90;2227.20;;;;;;4771352;30;20027;-60
2021/12/12 06:13:54;;;;;;;43.60;27.87;;;51.80;2227.20;;;;;;4770670;30;19914;-60
2021/12/12 06:16:21;;;;;;;42.93;25.53;;;51.90;2227.20;;;;;;4770562;30;20035;-60
2021/12/12 06:19:00;;;;;;;42.33;25.17;;;51.90;2227.20;;;;;;4770761;30;20047;-60
2021/12/12 06:21:27;;;;;;;39.87;23.47;;;51.90;2227.20;;;;;;4770603;30;20031;-60
2021/12/12 06:23:53;;;;;;;39.93;23.33;;;51.90;2227.20;;;;;;4770462;30;20039;-59
2021/12/12 06:26:20;;;;;;;37.93;22.07;;;51.90;2227.20;;;;;;4770900;30;20480;-60
2021/12/12 06:28:48;;;;;;;43.90;24.83;;;51.90;2227.20;;;;;;4770259;30;20051;-59
2021/12/12 06:31:14;;;;;;;38.83;23.83;;;51.90;2227.20;;;;;;4770478;30;20114;-60
2021/12/12 06:33:40;;;;;;;39.07;23.13;;;51.90;2227.20;;;;;;4770438;30;20027;-60
2021/12/12 06:36:12;;;;;;;37.53;23.93;;;51.90;2227.20;;;;;;4770417;30;20093;-60
2021/12/12 06:38:40;;;;;;;41.67;24.27;;;51.80;2227.20;;;;;;4770337;30;20044;-60
2021/12/12 06:41:08;;;;;;;43.20;25.83;;;51.80;2227.20;;;;;;4770285;30;20039;-59
2021/12/12 06:43:35;;;;;;;58.23;30.37;;;51.80;2227.20;;;;;;4770204;30;20500;-59
2021/12/12 06:46:02;;;;;;;46.90;27.97;;;51.90;2227.20;;;;;;4770445;30;20028;-60
2021/12/12 06:48:29;;;;;;;43.53;24.77;;;51.90;2227.20;;;;;;4770129;30;20032;-60
2021/12/12 06:50:56;;;;;;;47.57;27.90;;;51.90;2227.20;;;;;;4770206;30;20119;-60
2021/12/12 06:53:25;;;;;;;60.40;34.27;;;51.80;2227.20;;;;;;4770128;30;20478;-59
2021/12/12 06:55:53;;;;;;;49.07;27.57;;;51.90;2227.20;;;;;;4754252;30;20035;-59
2021/12/12 06:58:20;;;;;;;54.30;29.50;;;51.80;2227.20;;;;;;4770152;30;20085;-60
2021/12/12 07:00:51;;;;;;;44.67;26.03;;;51.90;2227.20;;;;;;4770912;30;20067;-59
2021/12/12 07:03:18;;;;;;;50.57;29.80;;;51.90;2227.20;;;;;;4773803;30;20024;-60
2021/12/12 07:05:45;;;;;;;68.90;35.27;;;51.90;2227.20;;;;;;4773715;30;20027;-59
2021/12/12 07:08:11;;;;;;;69.67;32.37;;;51.90;2227.20;;;;;;4773623;30;20024;-59
2021/12/12 07:10:38;;;;;;;64.73;33.13;;;51.90;2227.20;;;;;;4773889;30;20067;-59
2021/12/12 07:13:06;;;;;;;43.87;25.67;;;51.90;2227.20;;;;;;4768675;30;20066;-59
2021/12/12 07:15:35;;;;;;;48.33;28.63;;;51.90;2227.20;;;;;;4765310;30;20032;-60
2021/12/12 07:18:08;;;;;;;44.10;27.77;;;51.90;2227.20;;;;;;4767097;30;20504;-60
2021/12/12 07:20:34;;;;;;;42.22;26.08;;;52.00;2227.20;;;;;;4773711;30;20031;-60
2021/12/12 07:23:05;;;;;;;44.37;25.87;;;51.90;2227.20;;;;;;4773553;30;20036;-60
2021/12/12 07:25:35;;;;;;;43.77;26.23;;;51.90;2227.20;;;;;;4763839;30;20028;-60
2021/12/12 07:28:02;;;;;;;41.97;26.27;;;52.00;2227.20;;;;;;4760433;30;20095;-60
2021/12/12 07:30:28;;;;;;;47.47;27.57;;;52.00;2227.20;;;;;;4762406;30;20107;-71
2021/12/12 07:32:55;;;;;;;50.10;29.30;;;52.00;2227.20;;;;;;4763111;30;20031;-64
2021/12/12 07:35:21;;;;;;;46.87;27.67;;;52.00;2227.20;;;;;;4761530;30;20034;-60
2021/12/12 07:37:48;;;;;;;45.77;25.77;;;52.00;2227.20;;;;;;4765152;30;20535;-60
2021/12/12 07:40:15;;;;;;;40.67;23.60;;;52.00;2227.20;;;;;;4763915;30;20070;-60
2021/12/12 07:42:45;;;;;;;43.13;27.10;;;52.00;2227.20;;;;;;4762655;30;20048;-60
2021/12/12 07:45:11;;;;;;;41.53;26.13;;;52.10;2227.20;;;;;;4765430;30;20039;-60
2021/12/12 07:47:37;;;;;;;38.73;24.07;;;52.00;2227.20;;;;;;4764523;30;20706;-59
2021/12/12 07:50:07;;;;;;;39.93;24.60;;;52.00;2227.20;;;;;;4763385;30;20075;-60
2021/12/12 07:52:33;;;;;;;36.23;22.93;;;52.10;2227.20;;;;;;4761767;30;20036;-60
2021/12/12 07:55:00;;;;;;;39.97;23.77;;;52.10;2227.20;;;;;;4763759;30;20053;-60
2021/12/12 07:57:29;;;;;;;34.77;21.93;;;52.10;2227.20;;;;;;4753516;30;20040;-61
2021/12/12 07:59:59;;;;;;;31.97;21.10;;;52.10;2227.20;;;;;;4758772;30;20552;-60
2021/12/12 08:02:27;;;;;;;33.73;21.27;;;52.10;2227.20;;;;;;4762705;30;20063;-60
2021/12/12 08:04:54;;;;;;;35.53;22.87;;;52.10;2227.20;;;;;;4759147;30;20123;-60
2021/12/12 08:07:22;;;;;;;60.43;43.87;;;52.10;2227.20;;;;;;4755304;30;20530;-59
2021/12/12 08:09:49;;;;;;;43.23;30.07;;;52.10;2227.20;;;;;;4754997;30;20517;-62
2021/12/12 08:12:19;;;;;;;33.13;21.93;;;52.10;2227.20;;;;;;4756614;30;20493;-57
2021/12/12 08:14:46;;;;;;;36.70;22.50;;;52.10;2227.20;;;;;;4756877;30;20036;-62
2021/12/12 08:17:13;;;;;;;36.07;23.47;;;52.10;2227.20;;;;;;4754670;30;20028;-61
2021/12/12 08:19:40;;;;;;;45.87;26.83;;;52.10;2227.20;;;;;;4754399;30;20082;-60
2021/12/12 08:22:09;;;;;;;52.33;29.47;;;52.10;2227.20;;;;;;4754790;30;20433;-60
2021/12/12 08:24:37;;;;;;;41.77;25.63;;;52.10;2227.20;;;;;;4754717;30;20424;-60
2021/12/12 08:27:05;;;;;;;44.13;25.97;;;52.00;2227.20;;;;;;4755014;30;20117;-60
2021/12/12 08:29:32;;;;;;;39.87;23.03;;;51.90;2227.20;;;;;;4754507;30;20181;-60
2021/12/12 08:32:02;;;;;;;52.73;32.77;;;51.80;2227.20;;;;;;4754865;30;20052;-60
2021/12/12 08:34:28;;;;;;;37.17;24.47;;;51.70;2227.20;;;;;;4754605;30;20038;-60
2021/12/12 08:36:55;;;;;;;50.80;29.03;;;51.70;2227.20;;;;;;4754846;30;20028;-60
2021/12/12 08:39:22;;;;;;;41.33;25.63;;;51.60;2227.20;;;;;;4754734;30;20135;-60
2021/12/12 08:41:50;;;;;;;54.27;30.00;;;51.60;2227.20;;;;;;4754516;30;20038;-60
2021/12/12 08:44:18;;;;;;;55.13;29.23;;;51.60;2227.20;;;;;;4754696;30;20039;-60
2021/12/12 08:46:47;;;;;;;43.80;26.93;;;51.60;2227.20;;;;;;4754353;30;20032;-60
2021/12/12 08:49:15;;;;;;;49.73;30.50;;;51.50;2227.20;;;;;;4754242;30;20057;-60
2021/12/12 08:51:46;;;;;;;46.77;30.20;;;51.50;2227.20;;;;;;4754540;30;20039;-60
2021/12/12 08:54:15;;;;;;;45.03;27.20;;;51.50;2227.20;;;;;;4754343;30;20371;-60
2021/12/12 08:56:49;;;;;;;38.80;25.03;;;51.40;2227.20;;;;;;4754118;30;20036;-60
2021/12/12 08:59:18;;;;;;;42.72;27.60;;;51.40;2227.20;;;;;;4754188;30;20068;-60
2021/12/12 09:01:46;;;;;;;47.07;28.43;;;51.30;2227.20;;;;;;4754174;30;20031;-60
2021/12/12 09:04:13;;;;;;;53.43;30.87;;;51.30;2227.20;;;;;;4754059;30;20399;-60
2021/12/12 09:06:54;;;;;;;57.87;32.83;;;51.30;2227.20;;;;;;4754003;30;20089;-60
2021/12/12 09:09:30;;;;;;;53.93;33.67;;;51.30;2227.20;;;;;;4754028;30;20044;-60
2021/12/12 09:12:04;;;;;;;52.83;30.63;;;51.30;2227.20;;;;;;4754046;30;20020;-60
2021/12/12 09:15:04;;;;;;;60.10;31.27;;;51.30;2227.20;;;;;;4753919;30;20505;-60
2021/12/12 09:17:53;;;;;;;51.80;27.67;;;51.30;2227.20;;;;;;4746395;30;20083;-59
2021/12/12 09:20:31;;;;;;;52.10;30.17;;;51.30;2227.20;;;;;;4761824;30;20035;-60
2021/12/12 09:23:06;;;;;;;64.53;32.20;;;51.30;2227.20;;;;;;4762420;30;20057;-60
2021/12/12 09:26:06;;;;;;;76.57;40.23;;;51.30;2227.20;;;;;;4761987;30;20040;-60
2021/12/12 09:28:38;;;;;;;56.77;35.00;;;51.20;2227.20;;;;;;4696419;30;20053;-60
2021/12/12 09:31:13;;;;;;;61.13;30.60;;;51.20;2227.20;;;;;;4698750;30;20434;-60
2021/12/12 09:33:45;;;;;;;58.10;29.60;;;51.20;2227.20;;;;;;4697490;30;20046;-60
2021/12/12 09:36:28;;;;;;;63.13;33.20;;;26.50;2201.60;;;;;;4696575;30;20033;-60
2021/12/12 09:39:06;;;;;;;62.20;33.33;;;51.20;2227.20;;;;;;4696666;30;20053;-60
2021/12/12 09:41:52;;;;;;;62.23;33.73;;;26.50;2201.60;;;;;;4696526;30;20125;-60
2021/12/12 09:44:30;;;;;;;76.73;39.33;;;26.50;2201.60;;;;;;4698615;30;20073;-60
2021/12/12 09:48:25;;;;;;;86.40;43.83;;;51.20;2227.20;;;;;;4698615;30;20021;-60
2021/12/12 09:54:02;;;;;;;92.93;45.23;;;51.20;2227.20;;;;;;4716648;30;20071;-60
2021/12/12 09:56:43;;;;;;;80.63;46.08;;;51.20;2227.20;;;;;;4708583;30;20049;-60
2021/12/12 09:59:40;;;;;;;69.00;39.27;;;51.30;2227.20;;;;;;4716174;30;20060;-60
2021/12/12 10:02:14;;;;;;;85.00;48.70;;;51.20;2227.20;;;;;;4716098;30;20107;-60
2021/12/12 10:04:49;;;;;;;102.57;49.67;;;51.20;2227.20;;;;;;4756059;30;20044;-60
2021/12/12 10:07:23;;;;;;;82.03;42.50;;;51.20;2227.20;;;;;;4770816;30;20576;-60
2021/12/12 10:10:02;;;;;;;73.33;39.63;;;51.20;2227.20;;;;;;4759866;30;20088;-60
2021/12/12 10:12:36;;;;;;;68.67;37.00;;;51.20;2227.20;;;;;;4753277;30;20036;-60
2021/12/12 10:15:19;;;;;;;67.33;39.93;;;51.20;2227.20;;;;;;4753276;30;20052;-60
2021/12/12 10:18:31;;;;;;;72.40;46.30;;;51.20;2227.20;;;;;;4737049;30;20398;-60
2021/12/12 10:21:11;;;;;;;178.53;96.93;;;51.20;2227.20;;;;;;4711510;30;20123;-60
2021/12/12 10:23:57;;;;;;;110.23;62.10;;;26.50;2201.60;;;;;;4752750;30;20028;-60
2021/12/12 10:26:37;;;;;;;85.67;57.83;;;26.50;2201.60;;;;;;4752402;30;20039;-60
2021/12/12 10:29:26;;;;;;;68.30;41.03;;;26.50;2201.60;;;;;;4752712;30;20060;-60
2021/12/12 10:32:07;;;;;;;80.50;50.07;;;26.50;2201.60;;;;;;4752982;30;20110;-60
2021/12/12 10:34:41;;;;;;;68.77;40.00;;;26.50;2201.60;;;;;;4752916;30;20032;-60
2021/12/12 10:37:17;;;;;;;67.77;41.17;;;26.50;2201.60;;;;;;4752432;30;20052;-60
2021/12/12 10:39:52;;;;;;;56.87;33.40;;;51.20;2227.20;;;;;;4753222;30;20399;-60
2021/12/12 10:42:23;;;;;;;62.20;35.10;;;51.20;2227.20;;;;;;4752957;30;20038;-60
2021/12/12 10:44:58;;;;;;;50.33;30.83;;;51.20;2227.20;;;;;;4752559;30;20031;-59
2021/12/12 10:47:38;;;;;;;168.83;89.97;;;51.20;2227.20;;;;;;4752646;30;20390;-58
2021/12/12 10:50:23;;;;;;;54.53;31.73;;;51.20;2227.20;;;;;;4752747;30;20107;-58
2021/12/12 10:53:03;;;;;;;51.10;28.53;;;26.50;2201.60;;;;;;4752319;30;20048;-59
2021/12/12 10:56:05;;;;;;;51.47;29.10;;;51.20;2227.20;;;;;;4752237;30;20089;-59
2021/12/12 10:58:46;;;;;;;256.73;135.93;;;26.50;2201.60;;;;;;4698248;30;20058;-59
2021/12/12 11:01:23;;;;;;;62.43;38.53;;;26.50;2201.60;;;;;;4698226;30;20499;-59
2021/12/12 11:04:04;;;;;;;62.30;39.10;;;26.50;2201.60;;;;;;4698167;30;20041;-58
2021/12/12 11:06:37;;;;;;;73.63;45.53;;;26.50;2201.60;;;;;;4698203;30;20040;-58
2021/12/12 11:09:05;;;;;;;91.00;62.15;;;26.50;2201.60;;;;;;4698628;30;20084;-58
2021/12/12 11:11:44;;;;;;;111.77;68.20;;;26.50;2201.60;;;;;;4698085;30;20042;-59
2021/12/12 11:14:24;;;;;;;54.93;32.73;;;26.50;2201.60;;;;;;4698134;30;20049;-58
2021/12/12 11:16:57;;;;;;;48.83;29.97;;;26.50;2201.60;;;;;;4698059;30;20045;-58
2021/12/12 11:19:40;;;;;;;50.30;30.20;;;26.50;2201.60;;;;;;4698250;30;20561;-59
2021/12/12 11:22:46;;;;;;;62.97;39.55;;;26.50;2201.60;;;;;;4698262;30;20159;-58
2021/12/12 11:25:26;;;;;;;57.50;30.70;;;26.50;2201.60;;;;;;4697637;30;20046;-58
2021/12/12 11:27:59;;;;;;;61.13;35.00;;;26.50;2201.60;;;;;;4698086;30;20049;-58
2021/12/12 11:30:34;;;;;;;63.10;32.50;;;26.50;2201.60;;;;;;4697928;30;20048;-59
2021/12/12 11:33:03;;;;;;;47.43;26.80;;;26.50;2201.60;;;;;;4701838;30;20034;-58
2021/12/12 11:35:29;;;;;;;52.73;33.80;;;26.40;2201.60;;;;;;4752540;30;20036;-58
2021/12/12 11:38:14;;;;;;;92.13;61.97;;;26.40;2201.60;;;;;;4752417;30;20055;-59
2021/12/12 11:41:09;;;;;;;47.87;28.37;;;26.40;2201.60;;;;;;4752286;30;20137;-58
2021/12/12 11:44:01;;;;;;;65.00;38.23;;;26.40;2201.60;;;;;;4729273;30;20044;-59
2021/12/12 11:46:38;;;;;;;49.17;26.37;;;26.50;2201.60;;;;;;4752477;30;20035;-58
2021/12/12 11:49:24;;;;;;;53.10;27.90;;;26.50;2201.60;;;;;;4754875;30;20441;-58
2021/12/12 11:51:55;;;;;;;69.33;31.00;;;26.50;2201.60;;;;;;4755572;30;20078;-58
2021/12/12 11:55:02;;;;;;;71.07;32.63;;;26.50;2201.60;;;;;;4755570;30;20042;-59
2021/12/12 11:57:34;;;;;;;71.73;32.07;;;26.50;2201.60;;;;;;4700630;30;20096;-59
2021/12/12 12:00:07;;;;;;;70.30;35.57;;;26.50;2201.60;;;;;;4700942;30;20412;-58
2021/12/12 12:02:35;;;;;;;65.55;32.53;;;26.50;2201.60;;;;;;4700859;30;20521;-58
2021/12/12 12:05:26;;;;;;;59.10;32.40;;;26.50;2201.60;;;;;;4700620;30;20042;-59
2021/12/12 12:08:00;;;;;;;52.03;28.63;;;26.40;2201.60;;;;;;4700677;30;20132;-59
2021/12/12 12:10:55;;;;;;;;;;;26.40;2201.60;;;;;;4700942;30;20076;-59
2021/12/12 12:13:26;;;;;;;47.08;26.92;;;26.40;2201.60;;;;;;4710071;30;19918;-58
2021/12/12 12:16:17;;;;;;;66.97;34.03;;;26.40;2201.60;;;;;;4717962;30;20492;-59
2021/12/12 12:18:43;;;;;;;68.77;38.40;;;26.40;2201.60;;;;;;4717869;30;20045;-56
2021/12/12 12:21:42;;;;;;;77.40;37.67;;;26.40;2201.60;;;;;;4718080;30;20032;-63
2021/12/12 12:24:43;;;;;;;61.40;32.60;;;26.40;2201.60;;;;;;4717778;30;20451;-58
2021/12/12 12:27:17;;;;;;;63.77;34.33;;;26.40;2201.60;;;;;;4717796;30;20057;-60
2021/12/12 12:30:01;;;;;;;61.33;31.63;;;26.40;2201.60;;;;;;4717555;30;20083;-60
2021/12/12 12:33:00;;;;;;;55.95;29.92;;;26.40;2201.60;;;;;;4753223;30;20114;-60
2021/12/12 12:35:45;;;;;;;61.97;30.13;;;26.40;2201.60;;;;;;4754909;30;20040;-60
2021/12/12 12:38:32;;;;;;;53.47;29.63;;;26.40;2201.60;;;;;;4754629;30;20036;-60
2021/12/12 12:41:35;;;;;;;57.83;32.23;;;26.40;2201.60;;;;;;4754532;30;20032;-60
2021/12/12 12:44:38;;;;;;;52.77;28.10;;;26.40;2201.60;;;;;;4754549;30;20071;-59
2021/12/12 12:47:26;;;;;;;57.13;30.10;;;26.40;2201.60;;;;;;4754469;30;20056;-60
2021/12/12 12:50:22;;;;;;;45.13;24.33;;;26.30;2201.60;;;;;;4755357;30;20055;-60
2021/12/12 12:53:23;;;;;;;56.00;29.43;;;26.40;2201.60;;;;;;4754315;30;20028;-59
2021/12/12 12:56:10;;;;;;;58.70;28.47;;;26.40;2201.60;;;;;;4699804;30;20099;-59
2021/12/12 12:59:07;;;;;;;61.03;30.10;;;26.40;2201.60;;;;;;4750666;30;20048;-60
2021/12/12 13:01:42;;;;;;;57.43;29.03;;;26.40;2201.60;;;;;;4754518;30;20040;-60
2021/12/12 13:04:14;;;;;;;54.10;29.63;;;26.30;2201.60;;;;;;4754305;30;20099;-60